»·PEaware :: EJA1097 KSAC-KPSP

EJA1097 :: KSAC-KPSP

FLIGHT INFORMATION

Flight Status: Arrived
Operator:
Netjets Aviation
More flights by this operator :: More flights under this callsign
Pilot: Skye D. (10623)
Aircraft: BOMBARDIER BD-100 CHALLENGER 300
(CL30)
More flights by this aircraft type
Origin: KSAC Sacramento Executive
United States
Destination: KPSP Palm Springs Intl
United States
More flights between these airports :: More routes between these airports
Route: +SAC J65 CZQ OYVEY SIZLR3
File this flight plan on PilotEdge
Remarks:
Altitude:
(Current/Filed)
41,000ft
Speed:
(Current/Filed)
472kts
Departed: 13-Feb-18 12:47 PM
Arrived: 13-Feb-18 02:01 PM
Distance/Time
Traveled:
370nm/1:14
Distance/Time
To Go:
Arrived

Flight Plot

Page will automatically refresh every two minutes.

Flight plan parsing failed; only flown route is shown


Map Options




Map Legend


Flown Route
Filed Route
Departure Airport
Arrival Airport
Navaid (VOR, NDB)
Fix

Horizontal Profiles

Position Reports

Time Latitude Longitude Heading Altitude Ground
Speed
13-Feb-18 12:32 38.513925 -121.497762 212 30ft 0kts
13-Feb-18 12:33 38.513925 -121.497762 212 30ft 0kts
13-Feb-18 12:34 38.513925 -121.497762 212 30ft 0kts
13-Feb-18 12:35 38.513925 -121.497762 212 30ft 0kts
13-Feb-18 12:36 38.513925 -121.497762 212 30ft 0kts
13-Feb-18 12:37 38.513925 -121.497762 212 30ft 0kts
13-Feb-18 12:38 38.513925 -121.497762 212 30ft 0kts
13-Feb-18 12:39 38.513925 -121.497762 212 30ft 0kts
13-Feb-18 12:40 38.513925 -121.497762 212 30ft 0kts
13-Feb-18 12:41 38.513925 -121.497762 212 30ft 0kts
13-Feb-18 12:42 38.513925 -121.497762 212 30ft 0kts
13-Feb-18 12:43 38.513925 -121.497762 212 30ft 0kts
13-Feb-18 12:44 38.513925 -121.497762 212 30ft 0kts
13-Feb-18 12:45 38.513925 -121.497762 212 30ft 0kts
13-Feb-18 12:46 38.513925 -121.497762 212 30ft 0kts
13-Feb-18 12:47 38.513925 -121.497762 212 30ft 0kts
13-Feb-18 12:48 38.513628 -121.497608 123 30ft 8kts
13-Feb-18 12:49 38.513396 -121.496377 91 30ft 5kts
13-Feb-18 12:50 38.510107 -121.498321 213 30ft 15kts
13-Feb-18 12:51 38.506867 -121.501012 212 30ft 9kts
13-Feb-18 12:52 38.506279 -121.501126 167 30ft 0kts
13-Feb-18 12:53 38.505746 -121.500281 30 30ft 1kts
13-Feb-18 12:54 38.523349 -121.485320 42 1403ft 154kts
13-Feb-18 12:55 38.512706 -121.436295 162 2575ft 223kts
13-Feb-18 12:56 38.470214 -121.487263 253 5579ft 277kts
13-Feb-18 12:57 38.432892 -121.566797 213 10360ft 314kts
13-Feb-18 12:58 38.348427 -121.542263 138 13920ft 357kts
13-Feb-18 12:59 38.270781 -121.460995 128 17828ft 384kts
13-Feb-18 13:00 38.192203 -121.368908 126 21309ft 402kts
13-Feb-18 13:01 38.111609 -121.271693 125 24145ft 420kts
13-Feb-18 13:02 38.026986 -121.169083 126 26586ft 436kts
13-Feb-18 13:03 37.939580 -121.063391 127 28600ft 451kts
13-Feb-18 13:04 37.849612 -120.954943 127 30277ft 464kts
13-Feb-18 13:05 37.756775 -120.843402 128 32085ft 467kts
13-Feb-18 13:06 37.663383 -120.731507 131 33970ft 467kts
13-Feb-18 13:07 37.571146 -120.621492 132 35943ft 463kts
13-Feb-18 13:08 37.478734 -120.511603 134 37826ft 462kts
13-Feb-18 13:09 37.386864 -120.402840 134 39481ft 464kts
13-Feb-18 13:10 37.294317 -120.292883 135 40958ft 467kts
13-Feb-18 13:11 37.199467 -120.180649 136 41221ft 478kts
13-Feb-18 13:12 37.104069 -120.068810 136 41219ft 474kts
13-Feb-18 13:13 37.009278 -119.958108 136 41219ft 471kts
13-Feb-18 13:14 36.915551 -119.849042 136 41211ft 468kts
13-Feb-18 13:15 36.813505 -119.754974 146 41209ft 465kts
13-Feb-18 13:16 36.707167 -119.667217 146 41209ft 463kts
13-Feb-18 13:17 36.601652 -119.579685 146 41210ft 463kts
13-Feb-18 13:18 36.497374 -119.493339 146 41202ft 464kts
13-Feb-18 13:19 36.391461 -119.405905 146 41202ft 464kts
13-Feb-18 13:20 36.285599 -119.318391 146 41201ft 465kts
13-Feb-18 13:21 36.179239 -119.230478 148 41200ft 465kts
13-Feb-18 13:22 36.073038 -119.143576 148 41191ft 466kts
13-Feb-18 13:23 35.967219 -119.057353 148 41191ft 466kts
13-Feb-18 13:24 35.867396 -118.976276 148 41073ft 461kts
13-Feb-18 13:25 35.753461 -118.914550 171 39771ft 454kts
13-Feb-18 13:26 35.633224 -118.889931 173 37874ft 447kts
13-Feb-18 13:27 35.513544 -118.866060 173 35549ft 441kts
13-Feb-18 13:28 35.396756 -118.833344 159 31884ft 445kts
13-Feb-18 13:29 35.294221 -118.753859 152 28806ft 434kts
13-Feb-18 13:30 35.200717 -118.677933 153 26574ft 418kts
13-Feb-18 13:31 35.113866 -118.607298 152 25422ft 410kts
13-Feb-18 13:32 35.024655 -118.534631 152 24933ft 407kts
13-Feb-18 13:33 34.937791 -118.463985 152 24188ft 403kts
13-Feb-18 13:34 34.855875 -118.397478 152 24180ft 399kts
13-Feb-18 13:35 34.783288 -118.336187 141 24154ft 408kts
13-Feb-18 13:36 34.722821 -118.245007 135 23113ft 409kts
13-Feb-18 13:37 34.663202 -118.153340 135 22111ft 402kts
13-Feb-18 13:38 34.604675 -118.063217 135 21126ft 396kts
13-Feb-18 13:39 34.551947 -117.955833 123 20067ft 398kts
13-Feb-18 13:40 34.505523 -117.843799 122 19015ft 391kts
13-Feb-18 13:41 34.459228 -117.731458 122 17920ft 385kts
13-Feb-18 13:42 34.414589 -117.622842 122 16886ft 379kts
13-Feb-18 13:43 34.375300 -117.527032 121 16063ft 374kts
13-Feb-18 13:44 34.342630 -117.447452 121 15946ft 372kts
13-Feb-18 13:45 34.305624 -117.357512 121 15946ft 373kts
13-Feb-18 13:46 34.265815 -117.269439 125 15941ft 371kts
13-Feb-18 13:47 34.225053 -117.181990 125 15942ft 372kts
13-Feb-18 13:48 34.177533 -117.080692 125 15942ft 373kts
13-Feb-18 13:49 34.131450 -116.982557 125 15932ft 331kts
13-Feb-18 13:50 34.091664 -116.898015 126 15590ft 303kts
13-Feb-18 13:51 34.051252 -116.812011 125 14154ft 299kts
13-Feb-18 13:52 34.019683 -116.720959 113 13167ft 298kts
13-Feb-18 13:53 33.994945 -116.629601 112 11243ft 287kts
13-Feb-18 13:54 33.968303 -116.545669 137 10829ft 261kts
13-Feb-18 13:55 33.917381 -116.485559 139 8990ft 258kts
13-Feb-18 13:56 33.866387 -116.424850 134 8967ft 262kts
13-Feb-18 13:57 33.822905 -116.364143 133 7635ft 257kts
13-Feb-18 13:58 33.774344 -116.307082 135 6767ft 225kts
13-Feb-18 13:59 33.730341 -116.253976 135 4570ft 232kts
13-Feb-18 14:00 33.684882 -116.219293 202 3942ft 196kts
13-Feb-18 14:01 33.685654 -116.266860 305 3945ft 194kts
13-Feb-18 14:02 33.705629 -116.316930 292 3782ft 193kts
13-Feb-18 14:03 33.724755 -116.369464 296 3145ft 197kts
13-Feb-18 14:04 33.745155 -116.415665 301 2520ft 175kts
13-Feb-18 14:05 33.765909 -116.450398 313 1810ft 163kts
13-Feb-18 14:06 33.793914 -116.476543 326 1112ft 139kts
13-Feb-18 14:07 33.818322 -116.497566 326 565ft 130kts
13-Feb-18 14:08 33.832826 -116.510462 322 484ft 22kts
13-Feb-18 14:09 33.832738 -116.511889 188 484ft 0kts
13-Feb-18 14:10 33.831006 -116.510984 143 484ft 14kts
13-Feb-18 14:11 33.827477 -116.507751 145 484ft 14kts
13-Feb-18 14:12 33.825337 -116.507886 272 484ft 8kts
13-Feb-18 14:13 33.826081 -116.509492 357 484ft 1kts
13-Feb-18 14:14 33.826082 -116.509492 357 484ft 0kts

Navigation Log

Ident Type
Flight plan parsing failed, navigation log unavailable